Time;durP1;ratioP1;P1;durP2;ratioP2;P2;SDS_P1;SDS_P2;PMS_P1;PMS_P2;Temp;Humidity;BMP_temperature;BMP_pressure;BME280_temperature;BME280_humidity;BME280_pressure;Samples;Min_cycle;Max_cycle;Signal;HPM_P1;HPM_P2
2021/04/06 00:00:53;;;;;;;6.53;1.15;;;2.20;74.60;;;;;;3585244;40;20555;-59
2021/04/06 00:03:24;;;;;;;2.75;0.70;;;2.10;75.20;;;;;;3586321;39;20040;-59
2021/04/06 00:05:55;;;;;;;3.97;1.08;;;2.10;74.90;;;;;;3582637;39;20679;-59
2021/04/06 00:08:23;;;;;;;9.52;1.90;;;2.10;75.10;;;;;;3579501;40;20032;-59
2021/04/06 00:10:53;;;;;;;4.72;1.05;;;2.20;74.80;;;;;;3585127;40;20048;-59
2021/04/06 00:13:20;;;;;;;5.20;0.98;;;2.20;75.20;;;;;;3583627;39;20033;-59
2021/04/06 00:15:46;;;;;;;2.92;0.70;;;2.10;75.00;;;;;;3583047;40;20110;-60
2021/04/06 00:18:16;;;;;;;3.72;0.93;;;2.00;74.70;;;;;;3577839;40;20076;-59
2021/04/06 00:20:44;;;;;;;3.67;0.90;;;2.00;75.20;;;;;;3578876;40;20670;-59
2021/04/06 00:23:11;;;;;;;5.68;0.80;;;2.00;75.40;;;;;;3580937;40;20043;-59
2021/04/06 00:25:41;;;;;;;4.75;1.23;;;2.00;76.10;;;;;;3585402;39;20512;-59
2021/04/06 00:28:12;;;;;;;4.82;1.17;;;2.00;75.50;;;;;;3586483;39;20039;-59
2021/04/06 00:30:40;;;;;;;4.82;1.00;;;2.00;76.00;;;;;;3580929;40;20118;-58
2021/04/06 00:33:15;;;;;;;7.45;0.93;;;2.00;75.90;;;;;;3583811;40;20025;-59
2021/04/06 00:35:42;;;;;;;6.63;1.45;;;1.90;75.80;;;;;;3587679;39;20121;-59
2021/04/06 00:38:11;;;;;;;6.65;1.10;;;1.90;76.80;;;;;;3585039;39;20028;-58
2021/04/06 00:40:47;;;;;;;8.15;1.20;;;1.90;76.60;;;;;;3581669;40;20024;-59
2021/04/06 00:43:14;;;;;;;7.57;1.13;;;1.90;76.50;;;;;;3585809;40;20109;-59
2021/04/06 00:45:43;;;;;;;2.85;1.15;;;1.90;77.50;;;;;;3585951;39;20032;-59
2021/04/06 00:48:16;;;;;;;4.38;1.15;;;1.90;76.90;;;;;;3582464;39;20013;-59
2021/04/06 00:51:08;;;;;;;3.58;0.93;;;1.90;77.10;;;;;;3579451;40;20039;-58
2021/04/06 00:53:55;;;;;;;9.93;1.60;;;1.90;76.70;;;;;;3585228;40;20036;-59
2021/04/06 00:56:35;;;;;;;7.00;1.38;;;1.90;77.20;;;;;;3582050;39;20047;-59
2021/04/06 00:59:04;;;;;;;5.95;1.50;;;1.90;76.80;;;;;;3578917;40;20036;-59
2021/04/06 01:01:33;;;;;;;5.28;1.20;;;1.80;77.40;;;;;;3578237;40;20084;-59
2021/04/06 01:04:01;;;;;;;6.03;1.35;;;1.80;77.30;;;;;;3581086;40;20330;-59
2021/04/06 01:06:26;;;;;;;5.35;2.25;;;1.80;77.60;;;;;;3583780;40;20308;-59
2021/04/06 01:08:53;;;;;;;4.30;1.20;;;1.80;77.40;;;;;;3587420;39;20039;-59
2021/04/06 01:11:21;;;;;;;5.07;1.65;;;1.80;77.60;;;;;;3584428;39;20037;-59
2021/04/06 01:13:48;;;;;;;8.98;1.95;;;1.80;77.70;;;;;;3581719;39;20037;-59
2021/04/06 01:16:13;;;;;;;6.25;1.30;;;1.80;77.50;;;;;;3579287;40;20052;-59
2021/04/06 01:18:40;;;;;;;8.30;1.55;;;1.70;78.30;;;;;;3578032;40;20036;-59
2021/04/06 01:21:10;;;;;;;2.03;1.38;;;1.70;78.30;;;;;;3583107;40;20033;-59
2021/04/06 01:23:37;;;;;;;3.58;1.20;;;1.70;78.00;;;;;;3586219;39;20302;-59
2021/04/06 01:26:03;;;;;;;6.55;1.15;;;1.80;77.80;;;;;;3587132;39;20405;-59
2021/04/06 01:28:31;;;;;;;7.25;1.30;;;1.70;78.10;;;;;;3583616;40;20051;-58
2021/04/06 01:30:59;;;;;;;6.57;1.40;;;1.70;78.60;;;;;;3584743;40;20136;-59
2021/04/06 01:33:29;;;;;;;2.50;1.00;;;1.70;78.40;;;;;;3578193;40;20103;-59
2021/04/06 01:36:04;;;;;;;4.88;1.20;;;1.70;78.20;;;;;;3581222;40;20024;-59
2021/04/06 01:38:30;;;;;;;2.92;1.45;;;1.70;78.60;;;;;;3584066;40;20150;-59
2021/04/06 01:40:59;;;;;;;3.83;1.10;;;1.70;78.30;;;;;;3578278;40;20052;-59
2021/04/06 01:43:29;;;;;;;3.65;1.15;;;1.70;78.10;;;;;;3579750;40;20040;-59
2021/04/06 01:46:11;;;;;;;3.25;1.00;;;1.70;78.50;;;;;;3582983;39;20036;-59
2021/04/06 01:48:38;;;;;;;2.05;1.10;;;1.80;77.90;;;;;;3578888;40;20466;-59
2021/04/06 01:51:04;;;;;;;4.55;1.27;;;1.80;77.90;;;;;;3578748;40;20076;-58
2021/04/06 01:53:30;;;;;;;4.72;1.20;;;1.90;77.80;;;;;;3582148;39;20021;-59
2021/04/06 01:56:00;;;;;;;5.20;1.75;;;1.80;77.70;;;;;;3585140;39;20028;-58
2021/04/06 01:58:28;;;;;;;4.05;1.38;;;1.90;78.00;;;;;;3578764;40;20029;-59
2021/04/06 02:04:01;;;;;;;9.13;1.58;;;1.90;77.50;;;;;;3573996;40;20041;-59
2021/04/06 02:06:29;;;;;;;2.78;0.98;;;1.80;78.40;;;;;;3578160;40;20770;-58
2021/04/06 02:08:55;;;;;;;4.53;1.58;;;1.80;78.30;;;;;;3580306;40;20052;-59
2021/04/06 02:11:32;;;;;;;3.28;1.83;;;1.80;77.50;;;;;;3583618;39;20079;-59
2021/04/06 02:14:08;;;;;;;7.38;1.50;;;1.80;77.80;;;;;;3586881;40;20054;-59
2021/04/06 02:17:04;;;;;;;6.18;1.70;;;1.80;78.40;;;;;;3584295;40;20047;-59
2021/04/06 02:19:32;;;;;;;2.65;1.70;;;1.70;78.10;;;;;;3581090;40;20036;-58
2021/04/06 02:22:00;;;;;;;3.88;1.73;;;1.80;78.20;;;;;;3578843;40;20032;-59
2021/04/06 02:24:32;;;;;;;9.57;2.10;;;1.80;77.80;;;;;;3578734;40;20481;-58
2021/04/06 02:27:03;;;;;;;5.32;1.80;;;1.80;77.60;;;;;;3583271;40;20075;-59
2021/04/06 02:29:30;;;;;;;7.90;1.88;;;1.80;77.90;;;;;;3578264;40;20414;-59
2021/04/06 02:31:57;;;;;;;10.85;1.95;;;1.80;77.90;;;;;;3578849;40;20040;-59
2021/04/06 02:34:33;;;;;;;4.85;1.75;;;1.80;77.90;;;;;;3581947;40;20316;-59
2021/04/06 02:37:00;;;;;;;5.30;2.03;;;1.70;78.30;;;;;;3585186;39;20510;-58
2021/04/06 02:39:26;;;;;;;3.92;1.45;;;1.70;78.20;;;;;;3585587;39;20059;-58
2021/04/06 02:41:52;;;;;;;5.85;2.22;;;1.80;78.10;;;;;;3581026;40;20032;-59
2021/04/06 02:44:18;;;;;;;5.45;1.85;;;1.80;78.40;;;;;;3583958;40;20814;-59
2021/04/06 02:46:50;;;;;;;4.53;1.98;;;1.70;78.00;;;;;;3586783;40;20044;-59
2021/04/06 02:49:16;;;;;;;3.10;1.50;;;1.70;78.20;;;;;;3585438;39;20040;-58
2021/04/06 02:51:42;;;;;;;5.90;1.75;;;1.60;78.00;;;;;;3582041;39;20028;-59
2021/04/06 02:54:08;;;;;;;8.65;2.03;;;1.60;78.10;;;;;;3578604;40;20033;-58
2021/04/06 02:56:37;;;;;;;3.53;2.03;;;1.60;77.90;;;;;;3578599;40;20039;-59
2021/04/06 02:59:13;;;;;;;6.15;1.70;;;1.60;77.90;;;;;;3581512;40;20031;-59
2021/04/06 03:01:39;;;;;;;5.53;1.73;;;1.70;78.10;;;;;;3584296;39;20032;-59
2021/04/06 03:04:26;;;;;;;4.15;1.80;;;1.70;77.80;;;;;;3586288;40;20517;-59
2021/04/06 03:06:54;;;;;;;5.97;1.98;;;1.60;77.70;;;;;;3583504;40;20040;-59
2021/04/06 03:09:21;;;;;;;2.58;1.92;;;1.70;78.30;;;;;;3579908;40;20052;-59
2021/04/06 03:11:54;;;;;;;3.15;1.65;;;1.60;78.10;;;;;;3577796;40;20125;-59
2021/04/06 03:14:25;;;;;;;4.55;1.63;;;1.70;78.10;;;;;;3579969;40;20080;-58
2021/04/06 03:16:52;;;;;;;4.15;2.15;;;1.70;78.20;;;;;;3582677;40;20062;-59
2021/04/06 03:19:28;;;;;;;5.30;2.15;;;1.60;78.30;;;;;;3585650;39;20044;-59
2021/04/06 03:21:55;;;;;;;6.10;1.45;;;1.60;78.40;;;;;;3584620;40;20618;-58
2021/04/06 03:24:21;;;;;;;7.25;1.95;;;1.60;77.50;;;;;;3581719;40;20037;-58
2021/04/06 03:26:48;;;;;;;6.22;1.60;;;1.60;78.20;;;;;;3585084;40;20614;-59
2021/04/06 03:29:16;;;;;;;7.10;1.80;;;1.60;78.40;;;;;;3585798;39;20040;-58
2021/04/06 03:31:42;;;;;;;4.22;1.60;;;1.60;78.00;;;;;;3582097;39;20033;-58
2021/04/06 03:34:09;;;;;;;5.95;1.90;;;1.60;77.90;;;;;;3578525;40;20036;-59
2021/04/06 03:36:35;;;;;;;4.18;1.77;;;1.50;77.70;;;;;;3589002;39;20036;-59
2021/04/06 03:39:07;;;;;;;6.60;2.30;;;1.50;78.20;;;;;;3584193;39;20031;-58
2021/04/06 03:41:33;;;;;;;5.30;1.80;;;1.50;78.10;;;;;;3583943;39;20131;-58
2021/04/06 03:44:06;;;;;;;4.35;1.60;;;1.50;77.70;;;;;;3587183;39;20028;-59
2021/04/06 03:46:32;;;;;;;6.55;2.00;;;1.50;78.20;;;;;;3585860;39;20074;-59
2021/04/06 03:49:16;;;;;;;5.28;1.60;;;1.50;78.10;;;;;;3587901;39;20634;-59
2021/04/06 03:51:49;;;;;;;5.75;2.00;;;1.40;77.90;;;;;;3590168;39;20172;-59
2021/04/06 03:54:32;;;;;;;5.47;2.08;;;1.40;78.30;;;;;;3586264;39;20031;-59
2021/04/06 03:56:58;;;;;;;3.30;1.75;;;1.40;78.30;;;;;;3576961;40;20722;-59
2021/04/06 03:59:27;;;;;;;8.63;1.58;;;1.40;78.10;;;;;;3588742;39;20113;-59
2021/04/06 04:01:53;;;;;;;6.72;1.77;;;1.30;78.20;;;;;;3582247;39;20121;-59
2021/04/06 04:04:18;;;;;;;4.40;2.03;;;1.30;78.10;;;;;;3581789;39;20035;-59
2021/04/06 04:06:44;;;;;;;4.28;1.50;;;1.30;78.40;;;;;;3589697;39;20048;-58
2021/04/06 04:09:10;;;;;;;4.05;1.45;;;1.30;78.10;;;;;;3582615;39;20028;-58
2021/04/06 04:11:36;;;;;;;3.42;1.65;;;1.30;78.40;;;;;;3587466;39;20061;-58
2021/04/06 04:14:01;;;;;;;5.60;1.60;;;1.30;78.30;;;;;;3583523;39;20048;-58
2021/04/06 04:16:27;;;;;;;3.53;1.60;;;1.30;78.20;;;;;;3588205;39;20109;-59
2021/04/06 04:18:53;;;;;;;9.15;2.08;;;1.30;78.30;;;;;;3583143;39;20348;-58
2021/04/06 04:21:19;;;;;;;4.88;1.67;;;1.30;78.30;;;;;;3584222;39;20029;-59
2021/04/06 04:23:45;;;;;;;6.35;1.98;;;1.30;78.40;;;;;;3585572;39;20783;-58
2021/04/06 04:26:10;;;;;;;7.18;1.50;;;1.30;78.00;;;;;;3580719;39;20089;-58
2021/04/06 04:28:36;;;;;;;5.55;2.40;;;1.30;77.70;;;;;;3587650;39;20028;-59
2021/04/06 04:31:09;;;;;;;6.13;2.63;;;1.30;78.20;;;;;;3582695;39;20043;-58
2021/04/06 04:33:35;;;;;;;7.75;1.80;;;1.30;78.40;;;;;;3584090;39;20072;-59
2021/04/06 04:36:01;;;;;;;3.58;1.70;;;1.20;79.00;;;;;;3583032;39;20062;-58
2021/04/06 04:38:26;;;;;;;3.22;2.00;;;1.20;79.00;;;;;;3583641;39;20025;-58
2021/04/06 04:40:52;;;;;;;2.72;1.70;;;1.20;78.90;;;;;;3581585;39;20045;-61
2021/04/06 04:43:18;;;;;;;3.85;1.58;;;1.20;78.80;;;;;;3578142;40;20031;-59
2021/04/06 04:45:43;;;;;;;6.47;1.98;;;1.10;79.20;;;;;;3585191;39;20040;-58
2021/04/06 04:48:09;;;;;;;5.88;2.20;;;1.10;79.20;;;;;;3587380;39;20052;-59
2021/04/06 04:50:35;;;;;;;5.05;1.80;;;1.20;79.20;;;;;;3582334;39;20059;-58
2021/04/06 04:53:01;;;;;;;9.00;1.70;;;1.30;79.10;;;;;;3583440;39;20117;-59
2021/04/06 04:55:27;;;;;;;7.35;1.80;;;1.20;78.30;;;;;;3586720;39;20047;-59
2021/04/06 04:57:53;;;;;;;5.20;2.00;;;1.30;78.50;;;;;;3582808;39;20034;-59
2021/04/06 05:00:20;;;;;;;4.90;1.90;;;1.30;78.80;;;;;;3590045;39;20023;-58
2021/04/06 05:02:46;;;;;;;4.78;2.15;;;1.30;78.50;;;;;;3583576;39;20078;-58
2021/04/06 05:05:14;;;;;;;6.63;2.22;;;1.30;79.10;;;;;;3580415;39;20040;-60
2021/04/06 05:07:44;;;;;;;6.60;2.38;;;1.30;78.70;;;;;;3584742;39;20028;-59
2021/04/06 05:10:12;;;;;;;5.28;2.13;;;1.20;79.20;;;;;;3583521;39;20028;-58
2021/04/06 05:12:38;;;;;;;4.72;2.00;;;1.30;78.90;;;;;;3586385;39;20020;-58
2021/04/06 05:15:06;;;;;;;8.65;1.90;;;1.20;79.20;;;;;;3585290;39;20048;-58
2021/04/06 05:17:32;;;;;;;8.75;2.20;;;1.30;79.00;;;;;;3586074;39;20052;-59
2021/04/06 05:19:57;;;;;;;6.10;2.33;;;1.30;79.20;;;;;;3583832;39;20400;-59
2021/04/06 05:22:23;;;;;;;6.55;2.17;;;1.40;79.00;;;;;;3582806;39;20032;-59
2021/04/06 05:24:49;;;;;;;6.05;2.47;;;1.50;78.60;;;;;;3583995;39;20102;-59
2021/04/06 05:27:15;;;;;;;8.55;2.35;;;1.60;78.50;;;;;;3587346;39;20043;-59
2021/04/06 05:29:40;;;;;;;7.03;2.10;;;1.60;79.10;;;;;;3587989;39;20020;-59
2021/04/06 05:32:06;;;;;;;4.90;2.53;;;1.60;78.60;;;;;;3589275;39;20058;-58
2021/04/06 05:34:32;;;;;;;4.95;2.38;;;1.70;78.70;;;;;;3583621;39;20049;-59
2021/04/06 05:36:58;;;;;;;8.57;3.05;;;1.80;78.40;;;;;;3586114;39;20412;-59
2021/04/06 05:39:23;;;;;;;7.65;2.58;;;1.90;78.30;;;;;;3583017;39;20705;-58
2021/04/06 05:41:50;;;;;;;7.60;2.15;;;1.80;77.70;;;;;;3590724;39;20095;-59
2021/04/06 05:44:17;;;;;;;6.18;2.53;;;1.90;77.30;;;;;;3583041;39;20020;-59
2021/04/06 05:46:45;;;;;;;7.60;2.92;;;2.00;77.40;;;;;;3587067;39;20024;-62
2021/04/06 05:49:15;;;;;;;10.88;5.35;;;2.10;76.80;;;;;;3588322;39;20091;-59
2021/04/06 05:51:42;;;;;;;7.38;4.63;;;2.30;76.60;;;;;;3583672;39;20029;-58
2021/04/06 05:54:13;;;;;;;10.57;8.25;;;2.50;75.30;;;;;;3584888;39;20042;-59
2021/04/06 05:56:40;;;;;;;8.75;4.05;;;2.90;73.90;;;;;;3583973;39;20128;-59
2021/04/06 05:59:07;;;;;;;10.88;6.70;;;3.20;71.40;;;;;;3584376;39;20027;-58
2021/04/06 06:01:41;;;;;;;5.95;3.75;;;3.40;71.10;;;;;;3586406;39;20111;-58
2021/04/06 06:04:12;;;;;;;6.70;2.97;;;3.80;69.90;;;;;;3587586;39;20043;-59
2021/04/06 06:06:38;;;;;;;9.73;3.50;;;4.30;68.40;;;;;;3589008;39;20119;-60
2021/04/06 06:09:05;;;;;;;6.72;4.18;;;4.80;65.20;;;;;;3586435;39;20025;-58
2021/04/06 06:11:31;;;;;;;8.73;2.85;;;5.20;63.40;;;;;;3578670;40;20013;-59
2021/04/06 06:13:58;;;;;;;6.32;3.35;;;5.60;62.40;;;;;;3584659;39;20040;-58
2021/04/06 06:16:28;;;;;;;6.15;3.75;;;5.90;61.20;;;;;;3585034;39;20361;-59
2021/04/06 06:18:55;;;;;;;6.85;4.35;;;6.40;59.90;;;;;;3586190;39;20286;-58
2021/04/06 06:21:23;;;;;;;6.30;2.60;;;6.80;58.20;;;;;;3582530;39;20036;-58
2021/04/06 06:23:49;;;;;;;5.63;2.10;;;7.30;56.80;;;;;;3588287;39;20033;-58
2021/04/06 06:26:17;;;;;;;6.28;3.67;;;7.50;55.20;;;;;;3584569;39;20036;-58
2021/04/06 06:29:05;;;;;;;7.32;3.75;;;7.10;56.10;;;;;;3586861;39;20044;-58
2021/04/06 06:31:43;;;;;;;3.95;2.20;;;6.30;58.30;;;;;;3585772;39;20428;-59
2021/04/06 06:34:30;;;;;;;34.20;13.07;;;5.80;61.20;;;;;;3587744;39;20039;-59
2021/04/06 06:37:24;;;;;;;10.73;2.70;;;5.60;62.80;;;;;;3585373;39;20317;-58
2021/04/06 06:39:56;;;;;;;41.75;14.35;;;5.30;62.70;;;;;;3581157;39;20036;-58
2021/04/06 06:42:25;;;;;;;43.45;16.30;;;5.50;63.20;;;;;;3587158;39;20110;-58
2021/04/06 06:44:51;;;;;;;58.88;19.52;;;6.10;61.30;;;;;;3582776;39;20621;-58
2021/04/06 06:47:26;;;;;;;12.90;4.50;;;6.90;59.90;;;;;;3589349;39;20044;-59
2021/04/06 06:49:54;;;;;;;8.82;3.40;;;7.40;57.10;;;;;;3585984;39;20039;-59
2021/04/06 06:52:23;;;;;;;9.10;3.50;;;7.40;56.80;;;;;;3585818;39;20044;-58
2021/04/06 06:54:58;;;;;;;7.43;3.08;;;7.20;57.50;;;;;;3585414;39;20044;-59
2021/04/06 06:57:33;;;;;;;11.85;4.32;;;7.20;58.00;;;;;;3588813;39;20027;-59
2021/04/06 07:00:13;;;;;;;8.50;3.17;;;7.10;58.90;;;;;;3584871;39;20639;-59
2021/04/06 07:02:40;;;;;;;4.20;2.20;;;7.10;59.50;;;;;;3584574;39;20413;-59
2021/04/06 07:05:26;;;;;;;5.25;2.28;;;7.20;58.80;;;;;;3586420;39;20036;-59
2021/04/06 07:08:03;;;;;;;5.70;2.50;;;7.30;58.20;;;;;;3589403;39;20079;-59
2021/04/06 07:10:40;;;;;;;7.95;2.45;;;7.30;58.60;;;;;;3580349;39;20250;-59
2021/04/06 07:13:10;;;;;;;10.02;2.65;;;7.50;58.60;;;;;;3584849;39;20131;-59
2021/04/06 07:15:39;;;;;;;6.38;2.47;;;7.90;57.90;;;;;;3590563;39;20052;-59
2021/04/06 07:18:08;;;;;;;5.63;2.13;;;8.40;55.70;;;;;;3591504;39;20027;-59
2021/04/06 07:20:39;;;;;;;3.60;2.08;;;8.40;54.70;;;;;;3585938;39;20808;-59
2021/04/06 07:23:08;;;;;;;7.15;2.33;;;8.10;54.80;;;;;;3588974;39;20335;-60
2021/04/06 07:25:35;;;;;;;5.60;2.20;;;7.80;56.70;;;;;;3589273;39;20626;-59
2021/04/06 07:28:02;;;;;;;6.10;2.63;;;7.60;58.10;;;;;;3587681;39;20161;-59
2021/04/06 07:30:28;;;;;;;7.15;3.08;;;7.40;58.70;;;;;;3586252;39;20040;-60
2021/04/06 07:32:56;;;;;;;11.07;2.90;;;7.30;59.20;;;;;;3584345;39;20804;-59
2021/04/06 07:35:23;;;;;;;4.18;2.60;;;7.20;60.30;;;;;;3585933;39;20114;-63
2021/04/06 07:37:49;;;;;;;5.13;2.85;;;7.40;59.70;;;;;;3588379;39;20039;-62
2021/04/06 07:40:20;;;;;;;12.57;3.35;;;7.50;59.00;;;;;;3588302;39;20028;-63
2021/04/06 07:42:47;;;;;;;6.68;3.40;;;7.50;58.70;;;;;;3587068;39;20409;-63
2021/04/06 07:45:22;;;;;;;10.70;4.70;;;7.40;59.40;;;;;;3580639;40;20620;-63
2021/04/06 07:47:48;;;;;;;10.77;5.35;;;7.20;60.00;;;;;;3588630;39;20040;-63
2021/04/06 07:50:40;;;;;;;8.00;3.97;;;7.20;59.90;;;;;;3587766;39;20146;-62
2021/04/06 07:53:29;;;;;;;8.43;3.25;;;7.20;60.20;;;;;;3582072;39;20040;-63
2021/04/06 07:55:56;;;;;;;8.55;2.80;;;6.90;61.00;;;;;;3582310;40;20100;-63
2021/04/06 07:58:44;;;;;;;5.22;2.90;;;6.60;61.80;;;;;;3586772;39;20039;-63
2021/04/06 08:01:12;;;;;;;6.55;2.90;;;6.20;62.90;;;;;;3583770;39;20294;-63
2021/04/06 08:04:02;;;;;;;8.50;3.30;;;6.20;64.30;;;;;;3584321;39;20039;-63
2021/04/06 08:06:50;;;;;;;10.52;3.85;;;6.20;64.30;;;;;;3582374;39;20108;-63
2021/04/06 08:09:35;;;;;;;17.70;6.10;;;6.40;64.30;;;;;;3582685;39;20036;-63
2021/04/06 08:12:24;;;;;;;16.90;6.10;;;6.60;64.00;;;;;;3584426;39;20039;-63
2021/04/06 08:14:59;;;;;;;8.68;4.22;;;6.50;63.10;;;;;;3588652;39;20047;-63
2021/04/06 08:17:30;;;;;;;8.07;3.45;;;6.40;65.40;;;;;;3587765;39;20062;-63
2021/04/06 08:19:58;;;;;;;9.77;4.50;;;6.60;64.00;;;;;;3584419;39;20040;-63
2021/04/06 08:22:25;;;;;;;7.03;3.85;;;6.60;62.40;;;;;;3588777;39;20505;-63
2021/04/06 08:24:52;;;;;;;6.15;3.28;;;6.60;63.00;;;;;;3587727;39;20040;-63
2021/04/06 08:27:36;;;;;;;6.32;3.03;;;6.50;63.50;;;;;;3584128;40;20066;-63
2021/04/06 08:30:31;;;;;;;5.75;3.35;;;6.50;64.30;;;;;;3584854;39;20030;-63
2021/04/06 08:32:56;;;;;;;22.85;10.18;;;6.30;64.00;;;;;;3589482;39;20036;-63
2021/04/06 08:35:48;;;;;;;9.52;4.80;;;6.20;64.60;;;;;;3585765;39;20031;-63
2021/04/06 08:38:23;;;;;;;20.25;7.78;;;6.30;64.40;;;;;;3585731;39;20691;-63
2021/04/06 08:41:00;;;;;;;11.27;3.60;;;6.30;64.30;;;;;;3583240;39;20117;-63
2021/04/06 08:43:34;;;;;;;9.63;3.17;;;6.30;64.60;;;;;;3583702;39;20697;-59
2021/04/06 08:46:15;;;;;;;6.70;5.25;;;6.50;64.10;;;;;;3583546;39;20046;-58
2021/04/06 08:48:50;;;;;;;7.88;3.60;;;6.70;63.50;;;;;;3586901;39;20812;-59
2021/04/06 08:51:37;;;;;;;6.03;2.77;;;6.70;62.20;;;;;;3585598;39;20488;-59
2021/04/06 08:54:06;;;;;;;7.10;2.40;;;6.70;63.70;;;;;;3586123;39;20117;-59
2021/04/06 08:56:37;;;;;;;8.27;3.00;;;6.80;63.80;;;;;;3584568;40;20070;-59
2021/04/06 08:59:18;;;;;;;4.95;2.38;;;6.80;62.90;;;;;;3587956;39;20036;-59
2021/04/06 09:01:56;;;;;;;6.70;2.80;;;6.80;63.20;;;;;;3586121;39;20042;-59
2021/04/06 09:04:52;;;;;;;9.05;3.10;;;6.70;63.20;;;;;;3584992;39;20040;-59
2021/04/06 09:07:23;;;;;;;6.80;3.13;;;6.70;63.60;;;;;;3586285;40;20353;-59
2021/04/06 09:09:54;;;;;;;6.97;2.92;;;6.80;63.30;;;;;;3585699;39;20040;-59
2021/04/06 09:12:20;;;;;;;11.57;2.90;;;7.00;63.20;;;;;;3585294;39;20079;-59
2021/04/06 09:14:47;;;;;;;10.65;3.28;;;7.20;62.10;;;;;;3587484;39;20028;-59
2021/04/06 09:17:13;;;;;;;11.15;3.08;;;7.40;61.40;;;;;;3584106;39;20064;-59
2021/04/06 09:19:40;;;;;;;9.15;3.35;;;7.40;61.60;;;;;;3583621;39;20318;-59
2021/04/06 09:22:14;;;;;;;12.77;4.57;;;7.40;60.70;;;;;;3586793;39;20047;-58
2021/04/06 09:24:41;;;;;;;8.13;2.90;;;7.30;60.80;;;;;;3586892;39;20156;-59
2021/04/06 09:27:08;;;;;;;8.93;3.85;;;7.50;61.30;;;;;;3587961;39;20067;-59
2021/04/06 09:29:42;;;;;;;14.02;7.13;;;7.70;60.60;;;;;;3587885;39;20476;-59
2021/04/06 09:32:13;;;;;;;17.45;5.20;;;8.00;59.70;;;;;;3586432;39;20036;-59
2021/04/06 09:34:44;;;;;;;13.73;4.72;;;8.70;59.80;;;;;;3586591;39;20020;-59
2021/04/06 09:37:17;;;;;;;7.88;3.38;;;9.80;57.00;;;;;;3585741;39;20032;-59
2021/04/06 09:39:49;;;;;;;15.00;5.15;;;10.30;53.80;;;;;;3585538;39;20027;-59
2021/04/06 09:42:16;;;;;;;8.93;3.85;;;10.30;52.60;;;;;;3586797;39;20032;-59
2021/04/06 09:44:44;;;;;;;10.10;2.95;;;10.20;54.30;;;;;;3578219;40;20044;-59
2021/04/06 09:47:18;;;;;;;10.23;3.70;;;10.00;54.10;;;;;;3587101;39;20024;-59
2021/04/06 09:49:46;;;;;;;9.88;3.55;;;9.80;54.10;;;;;;3585661;39;20379;-59
2021/04/06 09:52:25;;;;;;;9.05;2.40;;;9.70;54.40;;;;;;3589570;39;20035;-59
2021/04/06 09:54:56;;;;;;;6.65;2.70;;;9.40;55.00;;;;;;3590048;39;20040;-59
2021/04/06 09:57:32;;;;;;;8.20;2.78;;;9.10;55.70;;;;;;3585137;39;20032;-59
2021/04/06 09:59:58;;;;;;;10.32;3.15;;;9.40;55.90;;;;;;3587714;39;20037;-59
2021/04/06 10:02:29;;;;;;;9.82;2.60;;;9.80;55.60;;;;;;3587926;39;20064;-59
2021/04/06 10:04:55;;;;;;;7.90;2.53;;;10.30;54.40;;;;;;3583592;39;20814;-59
2021/04/06 10:07:30;;;;;;;15.15;3.55;;;10.50;51.90;;;;;;3586807;39;20052;-59
2021/04/06 10:09:59;;;;;;;14.52;3.95;;;10.40;50.90;;;;;;3586769;39;20046;-59
2021/04/06 10:12:28;;;;;;;7.45;3.42;;;10.20;54.20;;;;;;3583869;39;20038;-59
2021/04/06 10:14:54;;;;;;;7.35;3.03;;;10.00;53.60;;;;;;3586866;39;20032;-59
2021/04/06 10:17:22;;;;;;;5.13;2.40;;;9.70;53.60;;;;;;3591533;39;20040;-59
2021/04/06 10:20:07;;;;;;;10.18;2.45;;;9.80;53.30;;;;;;3584520;39;20041;-59
2021/04/06 10:22:57;;;;;;;11.10;4.57;;;9.80;53.90;;;;;;3589167;39;20024;-59
2021/04/06 10:25:32;;;;;;;6.88;2.65;;;9.90;52.90;;;;;;3580552;40;20698;-59
2021/04/06 10:28:00;;;;;;;6.22;1.90;;;10.10;51.70;;;;;;3588975;39;20078;-59
2021/04/06 10:30:47;;;;;;;9.20;2.50;;;9.90;52.10;;;;;;3587244;39;20365;-59
2021/04/06 10:33:15;;;;;;;9.18;2.80;;;9.60;52.70;;;;;;3583152;39;20621;-59
2021/04/06 10:35:47;;;;;;;10.80;2.28;;;9.30;53.30;;;;;;3585897;39;20040;-60
2021/04/06 10:38:23;;;;;;;7.95;2.28;;;9.10;54.40;;;;;;3585474;39;20158;-59
2021/04/06 10:41:02;;;;;;;8.40;2.70;;;9.00;52.80;;;;;;3584547;39;20028;-59
2021/04/06 10:43:29;;;;;;;5.25;1.65;;;9.20;55.40;;;;;;3587435;39;20027;-59
2021/04/06 10:46:03;;;;;;;6.20;2.00;;;9.50;53.00;;;;;;3587356;39;20028;-59
2021/04/06 10:48:32;;;;;;;5.28;1.38;;;9.70;52.00;;;;;;3588819;39;20063;-59
2021/04/06 10:51:07;;;;;;;4.78;1.73;;;9.70;51.40;;;;;;3583506;39;20121;-59
2021/04/06 10:53:41;;;;;;;4.13;1.52;;;9.60;51.30;;;;;;3581106;40;20028;-59
2021/04/06 10:56:27;;;;;;;7.20;1.90;;;9.40;51.00;;;;;;3585546;39;20024;-59
2021/04/06 10:59:02;;;;;;;6.00;2.10;;;9.30;51.70;;;;;;3584762;39;20683;-59
2021/04/06 11:01:41;;;;;;;5.37;1.77;;;9.10;53.80;;;;;;3583422;39;20032;-59
2021/04/06 11:04:19;;;;;;;6.40;1.90;;;9.00;55.10;;;;;;3589136;39;20597;-59
2021/04/06 11:06:56;;;;;;;7.18;1.70;;;8.90;54.70;;;;;;3585110;39;20054;-58
2021/04/06 11:09:40;;;;;;;5.07;1.75;;;8.80;56.10;;;;;;3586516;39;20127;-60
2021/04/06 11:12:11;;;;;;;15.15;2.53;;;8.70;57.70;;;;;;3587662;39;20183;-59
2021/04/06 11:14:39;;;;;;;3.53;1.58;;;8.80;56.80;;;;;;3581914;40;20108;-59
2021/04/06 11:17:06;;;;;;;11.00;2.00;;;8.80;53.90;;;;;;3591277;39;20047;-59
2021/04/06 11:19:37;;;;;;;7.88;1.63;;;8.80;54.90;;;;;;3591441;39;20086;-59
2021/04/06 11:22:06;;;;;;;6.72;1.98;;;8.50;54.50;;;;;;3588621;39;20044;-59
2021/04/06 11:24:33;;;;;;;5.38;1.33;;;8.20;58.60;;;;;;3589970;39;20035;-59
2021/04/06 11:27:00;;;;;;;8.57;2.95;;;7.40;56.10;;;;;;3588261;39;20031;-64
2021/04/06 11:29:29;;;;;;;4.95;1.30;;;6.80;57.00;;;;;;3586006;39;20563;-64
2021/04/06 11:31:58;;;;;;;4.40;1.00;;;6.60;57.60;;;;;;3578707;40;20029;-63
2021/04/06 11:34:24;;;;;;;3.58;0.90;;;6.60;58.70;;;;;;3583304;39;20040;-63
2021/04/06 11:36:50;;;;;;;1.83;0.98;;;6.70;59.80;;;;;;3582928;40;20063;-64
2021/04/06 11:39:19;;;;;;;3.60;1.00;;;6.90;57.30;;;;;;3585396;39;20024;-64
2021/04/06 11:41:48;;;;;;;4.38;1.60;;;6.90;56.50;;;;;;3587992;39;20067;-64
2021/04/06 11:44:18;;;;;;;4.40;1.55;;;6.90;57.70;;;;;;3584801;40;20028;-64
2021/04/06 11:46:45;;;;;;;8.15;1.80;;;7.00;58.40;;;;;;3587853;39;20089;-65
2021/04/06 11:49:12;;;;;;;8.95;1.52;;;7.10;58.50;;;;;;3592404;39;20049;-64
2021/04/06 11:51:39;;;;;;;8.90;1.95;;;7.30;58.40;;;;;;3580569;40;20028;-64
2021/04/06 11:54:06;;;;;;;4.03;1.30;;;7.40;59.80;;;;;;3586584;39;20028;-64
2021/04/06 11:56:33;;;;;;;9.00;1.73;;;7.70;60.40;;;;;;3584135;39;20050;-65
2021/04/06 11:58:58;;;;;;;6.40;1.20;;;8.10;58.50;;;;;;3582815;39;20500;-63
2021/04/06 12:01:24;;;;;;;5.60;1.58;;;8.40;53.30;;;;;;3584548;39;20044;-64
2021/04/06 12:03:50;;;;;;;3.70;1.38;;;8.70;52.40;;;;;;3587421;39;20047;-63
2021/04/06 12:06:16;;;;;;;4.20;1.45;;;8.90;51.60;;;;;;3584829;39;20024;-64
2021/04/06 12:08:42;;;;;;;5.38;1.27;;;9.00;51.50;;;;;;3586469;39;20024;-64
2021/04/06 12:11:09;;;;;;;6.30;1.42;;;8.90;49.70;;;;;;3585828;39;20086;-64
2021/04/06 12:13:35;;;;;;;7.75;1.45;;;9.00;50.40;;;;;;3589574;39;20031;-63
2021/04/06 12:16:01;;;;;;;4.30;1.10;;;9.10;48.30;;;;;;3585565;39;20056;-63
2021/04/06 12:18:27;;;;;;;4.25;1.30;;;8.90;50.20;;;;;;3586784;39;20036;-63
2021/04/06 12:20:53;;;;;;;4.07;1.52;;;8.50;54.90;;;;;;3585349;39;20039;-68
2021/04/06 12:23:18;;;;;;;5.97;1.15;;;8.10;56.70;;;;;;3578853;39;20028;-64
2021/04/06 12:25:44;;;;;;;4.70;3.20;;;7.70;58.50;;;;;;3586346;39;20048;-64
2021/04/06 12:28:10;;;;;;;7.03;3.63;;;7.80;58.60;;;;;;3588244;39;20025;-64
2021/04/06 12:30:36;;;;;;;5.07;3.67;;;8.10;58.20;;;;;;3587657;39;20024;-64
2021/04/06 12:33:01;;;;;;;7.38;1.73;;;8.50;57.10;;;;;;3581541;39;20031;-64
2021/04/06 12:35:28;;;;;;;5.05;1.38;;;8.80;55.20;;;;;;3585023;39;20534;-64
2021/04/06 12:37:55;;;;;;;3.90;1.10;;;8.90;55.60;;;;;;3586232;39;20027;-64
2021/04/06 12:40:21;;;;;;;5.75;0.90;;;8.70;54.10;;;;;;3580905;39;20041;-64
2021/04/06 12:42:46;;;;;;;6.55;1.58;;;8.50;56.40;;;;;;3584555;39;20430;-63
2021/04/06 12:45:15;;;;;;;2.40;0.98;;;8.40;58.70;;;;;;3581150;39;20108;-64
2021/04/06 12:47:41;;;;;;;6.28;1.13;;;8.60;59.50;;;;;;3581498;39;20040;-64
2021/04/06 12:50:08;;;;;;;5.78;1.58;;;8.80;58.10;;;;;;3583257;39;20036;-65
2021/04/06 12:52:34;;;;;;;4.82;1.10;;;8.70;55.10;;;;;;3586926;39;20067;-64
2021/04/06 12:54:59;;;;;;;4.00;1.40;;;8.70;55.20;;;;;;3587367;39;20113;-63
2021/04/06 12:57:25;;;;;;;5.47;1.02;;;8.70;53.90;;;;;;3586138;39;20589;-64
2021/04/06 12:59:56;;;;;;;5.57;1.80;;;8.60;51.90;;;;;;3587983;39;20032;-64
2021/04/06 13:02:22;;;;;;;7.13;1.35;;;8.60;53.40;;;;;;3589562;39;20498;-63
2021/04/06 13:04:49;;;;;;;8.68;2.35;;;8.30;55.10;;;;;;3586437;39;20040;-64
2021/04/06 13:07:15;;;;;;;4.82;1.45;;;8.20;57.50;;;;;;3585826;39;20031;-64
2021/04/06 13:09:41;;;;;;;8.60;1.70;;;8.30;60.40;;;;;;3582157;39;20032;-63
2021/04/06 13:12:07;;;;;;;6.07;1.42;;;8.60;58.80;;;;;;3581945;39;20028;-64
2021/04/06 13:14:33;;;;;;;5.32;2.83;;;8.90;60.90;;;;;;3585419;39;20039;-64